createdAt,value
2023-05-16T00:01:40.041Z,17.93
2023-05-16T00:04:07.603Z,19.91
2023-05-16T00:06:36.020Z,19.39
2023-05-16T00:09:03.201Z,20.61
2023-05-16T00:11:30.950Z,20.56
2023-05-16T00:13:58.907Z,18.97
2023-05-16T00:16:26.121Z,18.19
2023-05-16T00:18:53.690Z,18.20
2023-05-16T00:21:23.568Z,18.24
2023-05-16T00:23:52.007Z,19.25
2023-05-16T00:26:19.514Z,18.59
2023-05-16T00:28:46.853Z,17.72
2023-05-16T00:31:14.175Z,17.16
2023-05-16T00:33:41.640Z,17.47
2023-05-16T00:36:08.812Z,17.38
2023-05-16T00:38:35.983Z,18.70
2023-05-16T00:41:04.363Z,17.27
2023-05-16T00:43:31.560Z,17.96
2023-05-16T00:45:58.898Z,17.63
2023-05-16T00:48:26.414Z,16.84
2023-05-16T00:50:54.049Z,16.48
2023-05-16T00:53:23.327Z,16.92
2023-05-16T00:55:51.562Z,16.89
2023-05-16T00:58:18.724Z,17.52
2023-05-16T01:00:48.765Z,16.91
2023-05-16T01:03:16.526Z,17.40
2023-05-16T01:05:43.949Z,17.52
2023-05-16T01:08:12.710Z,17.18
2023-05-16T01:10:44.345Z,16.37
2023-05-16T01:13:34.525Z,17.32
2023-05-16T01:16:21.269Z,17.42
2023-05-16T01:19:10.465Z,19.58
2023-05-16T01:21:42.618Z,20.45
2023-05-16T01:24:14.058Z,19.90
2023-05-16T01:26:41.539Z,18.69
2023-05-16T01:29:08.693Z,18.47
2023-05-16T01:31:35.977Z,18.13
2023-05-16T01:34:03.517Z,17.25
2023-05-16T01:36:40.107Z,16.96
2023-05-16T01:39:09.648Z,16.53
2023-05-16T01:41:42.170Z,18.86
2023-05-16T01:44:11.852Z,19.38
2023-05-16T01:46:39.197Z,20.11
2023-05-16T01:49:13.223Z,20.91
2023-05-16T01:51:40.763Z,20.49
2023-05-16T01:54:09.757Z,21.32
2023-05-16T01:56:37.084Z,21.10
2023-05-16T01:59:05.316Z,21.98
2023-05-16T02:01:32.828Z,22.10
2023-05-16T02:04:00.453Z,21.64
2023-05-16T02:06:27.654Z,21.93
2023-05-16T02:08:55.786Z,21.77
2023-05-16T02:11:23.292Z,18.75
2023-05-16T02:13:50.481Z,18.20
2023-05-16T02:16:17.932Z,17.20
2023-05-16T02:18:45.952Z,17.30
2023-05-16T02:21:13.222Z,16.36
2023-05-16T02:23:40.724Z,18.04
2023-05-16T02:26:08.127Z,19.56
2023-05-16T02:28:35.322Z,20.14
2023-05-16T02:31:04.461Z,21.10
2023-05-16T02:33:31.609Z,20.78
2023-05-16T02:35:58.807Z,19.42
2023-05-16T02:38:26.632Z,18.42
2023-05-16T02:40:56.059Z,19.26
2023-05-16T02:43:23.307Z,17.86
2023-05-16T02:45:50.746Z,17.58
2023-05-16T02:48:17.903Z,16.63
2023-05-16T02:50:45.056Z,16.28
2023-05-16T02:53:12.543Z,15.80
2023-05-16T02:55:39.850Z,16.23
2023-05-16T02:58:07.094Z,15.27
2023-05-16T03:00:34.501Z,16.56
2023-05-16T03:03:02.331Z,18.20
2023-05-16T03:05:31.071Z,18.77
2023-05-16T03:07:58.748Z,19.63
2023-05-16T03:10:26.432Z,19.71
2023-05-16T03:12:54.799Z,19.66
2023-05-16T03:15:22.448Z,19.20
2023-05-16T03:17:49.726Z,18.77
2023-05-16T03:20:16.941Z,18.07
2023-05-16T03:22:45.224Z,17.65
2023-05-16T03:25:12.474Z,17.27
2023-05-16T03:27:41.440Z,17.48
2023-05-16T03:30:09.332Z,19.05
2023-05-16T03:32:37.877Z,18.07
2023-05-16T03:35:05.311Z,19.23
2023-05-16T03:37:33.000Z,18.09
2023-05-16T03:40:00.180Z,19.52
2023-05-16T03:42:27.486Z,20.00
2023-05-16T03:44:54.908Z,20.45
2023-05-16T03:47:22.385Z,20.19
2023-05-16T03:49:50.134Z,20.51
2023-05-16T03:52:17.608Z,19.11
2023-05-16T03:54:44.739Z,19.54
2023-05-16T03:57:11.916Z,19.64
2023-05-16T03:59:39.340Z,18.01
2023-05-16T04:02:06.594Z,17.85
2023-05-16T04:04:34.092Z,18.27
2023-05-16T04:07:01.877Z,17.57
2023-05-16T04:09:29.011Z,19.42
2023-05-16T04:11:56.984Z,19.24
2023-05-16T04:14:24.432Z,18.87
2023-05-16T04:16:51.917Z,16.95
2023-05-16T04:19:19.641Z,16.15
2023-05-16T04:21:46.894Z,15.76
2023-05-16T04:24:14.081Z,16.34
2023-05-16T04:26:41.466Z,16.02
2023-05-16T04:29:08.898Z,15.52
2023-05-16T04:31:37.182Z,15.58
2023-05-16T04:34:04.869Z,15.84
2023-05-16T04:36:32.649Z,17.66
2023-05-16T04:38:59.820Z,17.97
2023-05-16T04:41:27.395Z,16.57
2023-05-16T04:43:54.594Z,17.87
2023-05-16T04:46:22.036Z,19.61
2023-05-16T04:48:49.646Z,18.80
2023-05-16T04:51:16.815Z,18.07
2023-05-16T04:53:44.077Z,17.71
2023-05-16T04:56:11.555Z,17.45
2023-05-16T04:58:39.614Z,16.25
2023-05-16T05:01:08.154Z,16.61
2023-05-16T05:03:36.050Z,17.26
2023-05-16T05:06:03.549Z,17.35
2023-05-16T05:08:30.871Z,17.28
2023-05-16T05:10:58.274Z,16.66
2023-05-16T05:13:25.441Z,16.63
2023-05-16T05:15:52.566Z,16.24
2023-05-16T05:18:20.449Z,16.17
2023-05-16T05:20:47.771Z,16.30
2023-05-16T05:23:14.903Z,17.14
2023-05-16T05:25:42.381Z,18.66
2023-05-16T05:28:09.580Z,18.95
2023-05-16T05:30:36.979Z,19.63
2023-05-16T05:33:04.489Z,20.19
2023-05-16T05:35:31.951Z,20.19
2023-05-16T05:37:59.224Z,20.74
2023-05-16T05:40:26.751Z,21.37
2023-05-16T05:42:53.915Z,21.05
2023-05-16T05:45:21.140Z,22.05
2023-05-16T05:47:48.591Z,23.27
2023-05-16T05:50:16.227Z,22.99
2023-05-16T05:52:43.403Z,23.12
2023-05-16T05:55:10.880Z,22.31
2023-05-16T05:57:38.179Z,22.08
2023-05-16T06:00:05.722Z,21.86
2023-05-16T06:02:35.089Z,22.35
2023-05-16T06:05:02.675Z,22.82
2023-05-16T06:07:31.173Z,22.43
2023-05-16T06:09:58.336Z,20.07
2023-05-16T06:12:25.807Z,18.96
2023-05-16T06:14:53.200Z,18.57
2023-05-16T06:17:20.495Z,18.83
2023-05-16T06:19:47.982Z,19.42
2023-05-16T06:22:15.156Z,20.03
2023-05-16T06:24:42.297Z,20.09
2023-05-16T06:27:09.998Z,20.95
2023-05-16T06:29:37.170Z,19.81
2023-05-16T06:32:04.430Z,20.13
2023-05-16T06:34:32.325Z,19.12
2023-05-16T06:37:00.010Z,19.86
2023-05-16T06:39:27.261Z,21.04
2023-05-16T06:41:56.501Z,21.43
2023-05-16T06:44:24.173Z,20.78
2023-05-16T06:46:51.521Z,20.14
2023-05-16T06:49:19.096Z,18.72
2023-05-16T06:51:46.330Z,20.41
2023-05-16T06:54:13.549Z,20.61
2023-05-16T06:56:41.084Z,19.94
2023-05-16T06:59:08.299Z,19.56
2023-05-16T07:01:35.577Z,20.12
2023-05-16T07:04:03.230Z,19.65
2023-05-16T07:06:31.158Z,19.57
2023-05-16T07:08:58.494Z,19.85
2023-05-16T07:11:26.113Z,18.97
2023-05-16T07:13:53.368Z,19.23
2023-05-16T07:16:20.671Z,19.83
2023-05-16T07:18:48.313Z,19.87
2023-05-16T07:21:15.572Z,19.98
2023-05-16T07:23:42.814Z,19.39
2023-05-16T07:26:12.567Z,18.86
2023-05-16T07:28:39.795Z,18.89
2023-05-16T07:31:08.344Z,19.58
2023-05-16T07:33:35.854Z,20.09
2023-05-16T07:36:15.371Z,19.13
2023-05-16T07:38:44.898Z,19.30
2023-05-16T07:41:12.234Z,18.76
2023-05-16T07:43:39.473Z,19.29
2023-05-16T07:46:07.297Z,19.31
2023-05-16T07:48:34.548Z,19.67
2023-05-16T07:51:01.764Z,18.87
2023-05-16T07:53:29.238Z,19.60
2023-05-16T07:55:56.676Z,18.46
2023-05-16T07:58:25.283Z,19.46
2023-05-16T08:00:52.810Z,19.10
2023-05-16T08:03:20.822Z,18.82
2023-05-16T08:05:49.114Z,18.63
2023-05-16T08:08:16.548Z,18.91
2023-05-16T08:10:44.017Z,18.27
2023-05-16T08:13:11.210Z,18.16
2023-05-16T08:15:38.456Z,18.38
2023-05-16T08:18:07.440Z,20.07
2023-05-16T08:20:34.681Z,19.88
2023-05-16T08:23:01.988Z,19.25
2023-05-16T08:25:29.772Z,19.07
2023-05-16T08:27:57.762Z,19.18
2023-05-16T08:30:25.959Z,18.37
2023-05-16T08:32:53.493Z,19.16
2023-05-16T08:35:20.700Z,19.38
2023-05-16T08:37:47.952Z,19.79
2023-05-16T08:40:15.567Z,18.77
2023-05-16T08:42:44.709Z,18.21
2023-05-16T08:45:12.630Z,18.33
2023-05-16T08:47:41.515Z,18.57
2023-05-16T08:50:10.123Z,18.91
2023-05-16T08:52:38.476Z,18.25
2023-05-16T08:55:11.331Z,19.04
2023-05-16T08:57:39.077Z,18.43
2023-05-16T09:00:11.894Z,17.89
2023-05-16T09:02:40.162Z,18.51
2023-05-16T09:05:09.154Z,19.38
2023-05-16T09:07:36.361Z,18.81
2023-05-16T09:10:04.098Z,17.75
2023-05-16T09:12:31.585Z,17.91
2023-05-16T09:14:58.807Z,18.18
2023-05-16T09:17:36.269Z,18.24
2023-05-16T09:20:10.348Z,18.48
2023-05-16T09:22:37.902Z,19.13
2023-05-16T09:25:06.980Z,18.20
2023-05-16T09:27:36.342Z,18.34
2023-05-16T09:30:03.673Z,18.50
2023-05-16T09:32:31.432Z,18.76
2023-05-16T09:34:59.090Z,18.53
2023-05-16T09:37:26.370Z,18.33
2023-05-16T09:39:55.042Z,18.82
2023-05-16T09:42:23.864Z,18.79
2023-05-16T09:44:51.731Z,18.49
2023-05-16T09:47:19.462Z,19.23
2023-05-16T09:49:47.351Z,19.10
2023-05-16T09:52:15.595Z,18.82
2023-05-16T09:54:42.722Z,18.98
2023-05-16T09:57:10.556Z,19.43
2023-05-16T09:59:38.535Z,18.75
2023-05-16T10:02:06.398Z,18.66
2023-05-16T10:04:36.974Z,19.17
2023-05-16T10:07:04.671Z,18.72
2023-05-16T10:09:35.126Z,18.20
2023-05-16T10:12:04.301Z,18.87
2023-05-16T10:14:34.245Z,18.93
2023-05-16T10:17:01.549Z,18.22
2023-05-16T10:19:30.533Z,17.92
2023-05-16T10:22:01.197Z,18.61
2023-05-16T10:24:29.901Z,18.42
2023-05-16T10:26:57.052Z,18.82
2023-05-16T10:29:24.868Z,18.35
2023-05-16T10:31:52.537Z,18.78
2023-05-16T10:34:19.779Z,18.72
2023-05-16T10:36:47.005Z,18.33
2023-05-16T10:39:15.308Z,18.55
2023-05-16T10:41:42.747Z,18.26
2023-05-16T10:44:13.381Z,18.76
2023-05-16T10:46:41.136Z,18.63
2023-05-16T10:49:22.027Z,18.67
2023-05-16T10:52:02.444Z,18.05
2023-05-16T10:54:36.319Z,18.37
2023-05-16T10:57:04.582Z,18.54
2023-05-16T10:59:32.416Z,18.49
2023-05-16T11:01:59.647Z,18.33
2023-05-16T11:04:45.262Z,18.61
2023-05-16T11:07:12.443Z,17.56
2023-05-16T11:09:41.411Z,18.10
2023-05-16T11:12:09.470Z,18.35
2023-05-16T11:14:43.670Z,18.81
2023-05-16T11:17:11.634Z,18.22
2023-05-16T11:19:42.180Z,18.42
2023-05-16T11:22:09.516Z,18.63
2023-05-16T11:24:38.087Z,18.51
2023-05-16T11:27:05.597Z,18.53
2023-05-16T11:29:33.967Z,19.09
2023-05-16T11:32:02.435Z,18.65
2023-05-16T11:34:30.528Z,18.77
2023-05-16T11:36:58.220Z,18.26
2023-05-16T11:39:25.926Z,18.62
2023-05-16T11:41:56.205Z,19.18
2023-05-16T11:44:23.508Z,18.39
2023-05-16T11:46:51.101Z,18.82
2023-05-16T11:49:18.446Z,19.11
2023-05-16T11:51:45.779Z,18.61
2023-05-16T11:54:13.349Z,18.69
2023-05-16T11:56:43.639Z,19.16
2023-05-16T11:59:10.999Z,18.70
2023-05-16T12:01:39.100Z,19.21
2023-05-16T12:04:10.943Z,18.99
2023-05-16T12:06:38.559Z,19.49
2023-05-16T12:09:12.500Z,19.59
2023-05-16T12:11:40.756Z,19.09
2023-05-16T12:14:08.794Z,19.16
2023-05-16T12:16:37.237Z,19.30
2023-05-16T12:19:05.582Z,19.48
2023-05-16T12:21:32.857Z,19.53
2023-05-16T12:24:00.087Z,19.40
2023-05-16T12:26:28.355Z,19.00
2023-05-16T12:28:58.058Z,20.01
2023-05-16T12:31:31.876Z,19.65
2023-05-16T12:34:00.093Z,19.43
2023-05-16T12:36:31.711Z,20.08
2023-05-16T12:39:05.550Z,19.85
2023-05-16T12:41:33.036Z,19.37
2023-05-16T12:44:20.817Z,20.07
2023-05-16T12:46:51.880Z,20.70
2023-05-16T12:49:25.253Z,20.61
2023-05-16T12:51:53.448Z,19.68
2023-05-16T12:54:22.769Z,19.58
2023-05-16T12:56:50.320Z,20.11
2023-05-16T12:59:19.498Z,19.84
2023-05-16T13:01:46.774Z,19.99
2023-05-16T13:04:20.012Z,20.44
2023-05-16T13:06:57.777Z,19.73
2023-05-16T13:09:29.057Z,20.04
2023-05-16T13:11:57.783Z,19.41
2023-05-16T13:14:25.001Z,19.92
2023-05-16T13:16:52.302Z,19.41
2023-05-16T13:19:20.033Z,19.09
2023-05-16T13:21:47.451Z,18.95
2023-05-16T13:24:14.631Z,19.03
2023-05-16T13:26:42.189Z,19.88
2023-05-16T13:29:11.359Z,20.09
2023-05-16T13:31:38.636Z,19.17
2023-05-16T13:34:06.928Z,18.81
2023-05-16T13:36:49.296Z,19.83
2023-05-16T13:39:22.119Z,19.21
2023-05-16T13:41:49.529Z,19.19
2023-05-16T13:44:17.035Z,19.89
2023-05-16T13:46:44.912Z,19.88
2023-05-16T13:49:12.155Z,19.59
2023-05-16T13:51:39.345Z,19.54
2023-05-16T13:54:06.832Z,20.14
2023-05-16T13:56:34.022Z,19.62
2023-05-16T13:59:06.384Z,19.64
2023-05-16T14:01:36.023Z,20.69
2023-05-16T14:04:03.656Z,20.16
2023-05-16T14:06:33.486Z,20.13
2023-05-16T14:09:00.877Z,21.54
2023-05-16T14:11:29.364Z,20.90
2023-05-16T14:13:57.408Z,20.57
2023-05-16T14:16:25.934Z,19.48
2023-05-16T14:18:53.488Z,19.62
2023-05-16T14:21:20.785Z,20.01
2023-05-16T14:23:49.744Z,21.73
2023-05-16T14:26:18.445Z,21.67
2023-05-16T14:28:45.692Z,21.81
2023-05-16T14:31:13.025Z,20.92
2023-05-16T14:33:41.179Z,21.85
2023-05-16T14:36:08.696Z,21.18
2023-05-16T14:38:36.244Z,20.36
2023-05-16T14:41:06.022Z,21.00
2023-05-16T14:43:33.209Z,21.32
2023-05-16T14:46:00.811Z,21.60
2023-05-16T14:48:28.975Z,21.90
2023-05-16T14:50:56.210Z,22.10
2023-05-16T14:53:23.639Z,22.14
2023-05-16T14:55:51.198Z,22.53
2023-05-16T14:58:18.577Z,21.91
2023-05-16T15:00:45.871Z,21.85
2023-05-16T15:03:15.715Z,22.03
2023-05-16T15:05:43.241Z,21.96
2023-05-16T15:08:10.452Z,21.80
2023-05-16T15:10:37.968Z,22.55
2023-05-16T15:13:05.202Z,22.51
2023-05-16T15:15:33.267Z,22.50
2023-05-16T15:18:01.550Z,22.60
2023-05-16T15:20:29.208Z,22.25
2023-05-16T15:22:56.981Z,22.32
2023-05-16T15:25:24.500Z,21.95
2023-05-16T15:27:51.754Z,22.01
2023-05-16T15:30:18.951Z,21.18
2023-05-16T15:32:46.628Z,21.44
2023-05-16T15:35:14.010Z,20.39
2023-05-16T15:37:41.288Z,20.55
2023-05-16T15:40:09.245Z,20.67
2023-05-16T15:42:36.572Z,20.08
2023-05-16T15:45:03.923Z,20.27
2023-05-16T15:47:31.631Z,21.44
2023-05-16T15:49:58.864Z,21.24
2023-05-16T15:52:26.473Z,20.61
2023-05-16T15:54:55.216Z,20.48
2023-05-16T15:57:22.554Z,20.77
2023-05-16T15:59:49.787Z,20.96
2023-05-16T16:02:17.312Z,20.59
2023-05-16T16:04:45.152Z,20.37
2023-05-16T16:07:12.534Z,20.26
2023-05-16T16:09:39.774Z,20.76
2023-05-16T16:12:07.530Z,20.40
2023-05-16T16:14:34.822Z,20.81
2023-05-16T16:17:02.093Z,20.59
2023-05-16T16:19:29.603Z,20.20
2023-05-16T16:21:56.813Z,20.90
2023-05-16T16:24:24.000Z,20.18
2023-05-16T16:26:51.552Z,20.11
2023-05-16T16:29:18.749Z,20.17
2023-05-16T16:31:46.068Z,20.61
2023-05-16T16:34:13.570Z,20.55
2023-05-16T16:36:41.022Z,20.07
2023-05-16T16:39:08.311Z,19.51
2023-05-16T16:41:35.921Z,19.34
2023-05-16T16:44:03.118Z,19.79
2023-05-16T16:46:30.436Z,20.06
2023-05-16T16:48:57.948Z,19.74
2023-05-16T16:51:25.274Z,19.45
2023-05-16T16:53:52.486Z,19.80
2023-05-16T16:56:19.965Z,20.06
2023-05-16T16:58:47.255Z,19.69
2023-05-16T17:01:14.591Z,19.69
2023-05-16T17:03:42.218Z,19.18
2023-05-16T17:06:09.459Z,19.59
2023-05-16T17:08:36.697Z,19.74
2023-05-16T17:11:05.444Z,19.36
2023-05-16T17:13:34.004Z,19.97
2023-05-16T17:16:01.927Z,19.39
2023-05-16T17:18:29.995Z,20.13
2023-05-16T17:20:57.884Z,19.66
2023-05-16T17:23:25.211Z,20.20
2023-05-16T17:25:52.990Z,20.31
2023-05-16T17:28:20.167Z,19.87
2023-05-16T17:30:47.411Z,20.49
2023-05-16T17:33:14.941Z,21.20
2023-05-16T17:35:42.517Z,20.13
2023-05-16T17:38:10.399Z,20.63
2023-05-16T17:40:38.030Z,20.70
2023-05-16T17:43:05.698Z,20.88
2023-05-16T17:45:32.980Z,20.11
2023-05-16T17:48:00.657Z,20.64
2023-05-16T17:50:29.172Z,19.40
2023-05-16T17:52:56.426Z,19.19
2023-05-16T17:55:25.219Z,19.94
2023-05-16T17:57:53.117Z,19.65
2023-05-16T18:00:22.661Z,20.11
2023-05-16T18:02:50.946Z,20.44
2023-05-16T18:05:18.299Z,20.28
2023-05-16T18:07:46.136Z,19.64
2023-05-16T18:10:14.063Z,19.56
2023-05-16T18:12:42.633Z,19.80
2023-05-16T18:15:10.810Z,19.63
2023-05-16T18:17:38.372Z,19.99
2023-05-16T18:20:10.654Z,19.17
2023-05-16T18:22:38.637Z,19.73
2023-05-16T18:25:06.541Z,19.69
2023-05-16T18:27:34.229Z,19.34
2023-05-16T18:30:03.664Z,18.58
2023-05-16T18:32:31.581Z,19.49
2023-05-16T18:34:58.848Z,19.11
2023-05-16T18:37:26.778Z,19.54
2023-05-16T18:39:54.352Z,19.63
2023-05-16T18:42:21.612Z,20.15
2023-05-16T18:44:50.748Z,19.77
2023-05-16T18:47:19.379Z,20.08
2023-05-16T18:49:47.241Z,20.28
2023-05-16T18:52:14.878Z,20.77
2023-05-16T18:54:42.885Z,20.42
2023-05-16T18:57:13.977Z,19.47
2023-05-16T18:59:42.081Z,20.26
2023-05-16T19:02:10.189Z,19.95
2023-05-16T19:04:37.748Z,20.39
2023-05-16T19:07:07.851Z,19.52
2023-05-16T19:09:36.797Z,19.89
2023-05-16T19:12:04.677Z,20.47
2023-05-16T19:14:32.483Z,19.68
2023-05-16T19:17:00.073Z,20.31
2023-05-16T19:19:27.824Z,20.03
2023-05-16T19:21:55.627Z,19.95
2023-05-16T19:24:23.558Z,20.28
2023-05-16T19:26:51.322Z,20.70
2023-05-16T19:29:21.551Z,21.21
2023-05-16T19:32:00.595Z,20.31
2023-05-16T19:34:28.457Z,20.39
2023-05-16T19:36:56.040Z,20.28
2023-05-16T19:39:23.306Z,19.67
2023-05-16T19:41:52.145Z,19.48
2023-05-16T19:44:19.698Z,19.73
2023-05-16T19:46:46.980Z,19.36
2023-05-16T19:49:16.646Z,19.08
2023-05-16T19:51:45.454Z,19.08
2023-05-16T19:54:12.685Z,19.54
2023-05-16T19:56:40.312Z,19.45
2023-05-16T19:59:07.660Z,19.86
2023-05-16T20:01:34.940Z,19.15
2023-05-16T20:04:02.670Z,18.81
2023-05-16T20:06:30.100Z,18.85
2023-05-16T20:08:57.385Z,19.41
2023-05-16T20:11:24.878Z,19.95
2023-05-16T20:13:52.046Z,20.74
2023-05-16T20:16:20.708Z,20.43
2023-05-16T20:18:48.317Z,20.34
2023-05-16T20:21:15.684Z,19.89
2023-05-16T20:23:42.971Z,20.41
2023-05-16T20:26:14.735Z,20.72
2023-05-16T20:28:42.103Z,21.33
2023-05-16T20:31:09.385Z,21.03
2023-05-16T20:33:37.120Z,19.99
2023-05-16T20:36:04.612Z,20.34
2023-05-16T20:38:31.866Z,20.47
2023-05-16T20:40:59.594Z,20.34
2023-05-16T20:43:27.011Z,20.76
2023-05-16T20:45:54.220Z,20.43
2023-05-16T20:48:21.729Z,20.57
2023-05-16T20:50:49.384Z,20.54
2023-05-16T20:53:19.575Z,20.88
2023-05-16T20:55:48.129Z,21.08
2023-05-16T20:58:18.653Z,21.33
2023-05-16T21:00:45.886Z,21.61
2023-05-16T21:03:13.861Z,21.05
2023-05-16T21:05:41.338Z,20.14
2023-05-16T21:08:08.775Z,20.54
2023-05-16T21:10:36.287Z,20.65
2023-05-16T21:13:03.858Z,20.65
2023-05-16T21:15:31.234Z,20.84
2023-05-16T21:18:00.200Z,20.64
2023-05-16T21:20:30.107Z,21.24
2023-05-16T21:22:57.360Z,21.78
2023-05-16T21:25:26.722Z,21.29
2023-05-16T21:27:54.162Z,21.78
2023-05-16T21:30:21.400Z,21.32
2023-05-16T21:32:48.912Z,20.78
2023-05-16T21:35:16.157Z,20.71
2023-05-16T21:37:43.318Z,21.32
2023-05-16T21:40:14.689Z,20.70
2023-05-16T21:42:42.372Z,21.36
2023-05-16T21:45:12.617Z,20.77
2023-05-16T21:47:40.176Z,21.32
2023-05-16T21:50:07.808Z,21.76
2023-05-16T21:52:35.013Z,21.83
2023-05-16T21:55:02.951Z,21.93
2023-05-16T21:57:30.173Z,21.90
2023-05-16T21:59:57.366Z,21.59
2023-05-16T22:02:24.979Z,22.19
2023-05-16T22:04:52.967Z,21.09
2023-05-16T22:07:20.336Z,21.08
2023-05-16T22:09:53.592Z,21.09
2023-05-16T22:12:21.209Z,21.15
2023-05-16T22:14:49.222Z,21.01
2023-05-16T22:17:17.555Z,21.48
2023-05-16T22:19:46.896Z,21.33
2023-05-16T22:22:14.162Z,21.48
2023-05-16T22:24:41.350Z,21.76
2023-05-16T22:27:08.815Z,22.30
2023-05-16T22:29:38.388Z,22.11
2023-05-16T22:32:06.590Z,22.35
2023-05-16T22:34:34.422Z,22.11
2023-05-16T22:37:01.645Z,21.51
2023-05-16T22:39:28.897Z,22.34
2023-05-16T22:41:56.355Z,20.50
2023-05-16T22:44:23.547Z,20.94
2023-05-16T22:46:50.775Z,21.44
2023-05-16T22:49:19.058Z,21.57
2023-05-16T22:51:49.052Z,21.77
2023-05-16T22:54:16.534Z,21.02
2023-05-16T22:56:44.094Z,20.78
2023-05-16T22:59:11.313Z,21.43
2023-05-16T23:01:38.588Z,21.71
2023-05-16T23:04:06.216Z,21.75
2023-05-16T23:06:33.514Z,22.00
2023-05-16T23:09:00.747Z,21.65
2023-05-16T23:11:28.268Z,21.55
2023-05-16T23:13:55.753Z,21.49
2023-05-16T23:16:22.973Z,20.98
2023-05-16T23:18:50.660Z,20.52
2023-05-16T23:21:18.096Z,20.48
2023-05-16T23:23:45.310Z,20.94
2023-05-16T23:26:12.840Z,21.39
2023-05-16T23:28:40.036Z,20.94
2023-05-16T23:31:07.417Z,21.88
2023-05-16T23:33:34.953Z,21.24
2023-05-16T23:36:02.152Z,21.07
2023-05-16T23:38:32.246Z,22.04
2023-05-16T23:40:59.787Z,21.92
2023-05-16T23:43:27.094Z,22.25
2023-05-16T23:45:54.262Z,22.64
2023-05-16T23:48:21.830Z,21.50
2023-05-16T23:50:49.159Z,21.85
2023-05-16T23:53:16.723Z,22.19
2023-05-16T23:55:44.228Z,22.16
2023-05-16T23:58:11.447Z,22.62
